• Join FlightAware (Why Join?)
  • Login
  • US Flag 
04:29AM EST


 

Airport Tracker/Info


-or-


 

Live Flight TrackerFlight Track Log ✈ N182PC ✈ 30-Sep-2013 ✈ KIER - KLQK

Flight Track Log - Related Links

Times and Time Zones

All times are in EDT time to prevent confusion due to time zone crossing. See the N182PC flight status page for this flight to view local times or setup timezone preferences in your user account.

Time Position Orientation Groundspeed Altitude Reporting Facility
EDT Latitude Longitude Course Direction KTS MPH feet Rate Location/Type
01:11PM 31.7650 -93.0775 65° Northeast 90 104 1,100  Level Houston Center
01:12PM 31.7758 -93.0497 65° Northeast 93 107 1,600 420 Climbing Houston Center
01:13PM 31.7833 -93.0267 69° East 94 108 1,900 360 Climbing Houston Center
01:13PM 31.7867 -93.0219 50° Northeast 95 109 2,000 480 Climbing Houston Center
01:14PM 31.7944 -92.9972 70° East 96 110 2,400 480 Climbing Houston Center
01:14PM 31.7972 -92.9892 68° East 99 114 2,500 420 Climbing Houston Center
01:15PM 31.8042 -92.9675 69° East 97 112 2,900 480 Climbing Houston Center
01:15PM 31.8058 -92.9614 72° East 97 112 3,000 480 Climbing Houston Center
01:16PM 31.8150 -92.9367 66° East 99 114 3,400 480 Climbing Houston Center
01:16PM 31.8164 -92.9286 79° East 102 117 3,500 540 Climbing Houston Center
01:17PM 31.8267 -92.9011 66° East 99 114 4,000 480 Climbing Houston Center
01:17PM 31.8272 -92.9006 40° Northeast 98 113 4,000 420 Level Houston Center
01:18PM 31.8378 -92.8703 68° East 97 112 4,500 480 Climbing Houston Center
01:19PM 31.8483 -92.8400 68° East 99 114 5,000 480 Climbing Houston Center
01:20PM 31.8592 -92.8097 67° East 100 115 5,500 360 Climbing Houston Center
01:20PM 31.8583 -92.8108 229° Southwest 100 115 5,400 480 Descending Houston Center
01:21PM 31.8694 -92.7767 69° East 103 119 6,000 540 Climbing Houston Center
01:21PM 31.8694 -92.7800 270° West 101 116 6,000 420 Level Houston Center
01:22PM 31.8789 -92.7486 70° East 101 116 6,500 480 Climbing Houston Center
01:23PM 31.8906 -92.7136 69° East 105 121 7,000 480 Climbing Houston Center
01:23PM 31.8928 -92.7114 40° Northeast 103 119 7,000 360 Level Houston Center
01:24PM 31.9011 -92.6831 71° East 105 121 7,400 480 Climbing Houston Center
01:24PM 31.9039 -92.6772 61° Northeast 108 124 7,500 420 Climbing Houston Center
01:25PM 31.9133 -92.6478 69° East 105 121 7,900 360 Climbing Houston Center
01:25PM 31.9139 -92.6461 69° East 105 121 7,900 360 Level Houston Center
01:26PM 31.9250 -92.6150 67° East 103 119 8,300 300 Climbing Houston Center
01:27PM 31.9364 -92.5819 68° East 107 123 8,600 240 Climbing Houston Center
01:28PM 31.9483 -92.5494 67° East 108 124 8,900 120 Climbing Houston Center
01:29PM 31.9608 -92.5119 69° East 116 133 8,900  Level Houston Center
01:30PM 31.9789 -92.4606 67° East 135 155 8,900  Level Houston Center
01:31PM 31.9936 -92.4164 69° East 142 163 8,900  Level Houston Center
01:32PM 32.0069 -92.3750 69° East 138 159 8,900  Level Houston Center
01:33PM 32.0222 -92.3319 67° East 140 161 8,900  Level Houston Center
01:34PM 32.0364 -92.2889 69° East 141 162 8,900  Level Houston Center
01:35PM 32.0506 -92.2464 69° East 139 160 8,900  Level Houston Center
01:36PM 32.0675 -92.1947 69° East 141 162 8,900  Level Houston Center
01:37PM 32.0817 -92.1531 68° East 138 159 8,900  Level Houston Center
01:38PM 32.0953 -92.1108 69° East 137 158 8,900  Level Houston Center
01:39PM 32.1097 -92.0692 68° East 137 158 8,900  Level Houston Center
01:40PM 32.1236 -92.0286 68° East 136 157 8,900  Level Houston Center
01:42PM 32.1392 -91.9864 66° East 137 158 8,900  Level Houston Center
01:44PM 32.1636 -91.8990 72° East  Level FlightAware Approximate
01:48PM 32.2264 -91.7081 72° East 138 159 8,900  Level Memphis Center
01:49PM 32.2414 -91.6664 67° East 194 223 8,900  Level Memphis Center
01:50PM 32.2564 -91.6250 67° East 155 178 8,900  Level Memphis Center
01:51PM 32.2493 -91.5902 72° East  Level FlightAware Approximate
01:51PM 32.2672 -91.5833 73° East 138 159 8,900  Level Memphis Center
01:52PM 32.2615 -91.5460 72° East  Level FlightAware Approximate
01:52PM 32.2844 -91.5392 65° Northeast 138 159 8,900  Level Memphis Center
01:53PM 32.2737 -91.5018 72° East  Level FlightAware Approximate
01:53PM 32.2972 -91.4978 70° East 133 153 8,900  Level Memphis Center
01:54PM 32.3122 -91.4536 68° East 133 153 8,900  Level Memphis Center
01:55PM 32.3231 -91.4119 73° East 133 153 8,900  Level Memphis Center
01:56PM 32.3400 -91.3703 64° Northeast 133 153 8,900  Level Memphis Center
01:57PM 32.3531 -91.3286 70° East 133 153 8,900  Level Memphis Center
01:58PM 32.3700 -91.2847 65° Northeast 133 153 9,000  Climbing Memphis Center
01:59PM 32.3828 -91.2428 70° East 133 153 8,900 -60 Descending Memphis Center
02:00PM 32.3978 -91.1989 68° East 133 153 8,900  Level Memphis Center
02:01PM 32.4128 -91.1547 68° East 133 153 8,900  Level Memphis Center
02:02PM 32.4256 -91.1128 70° East 133 153 8,900  Level Memphis Center
02:03PM 32.4383 -91.0686 71° East 133 153 9,000  Climbing Memphis Center
02:04PM 32.4508 -91.0319 68° East 133 153 8,900  Descending Memphis Center
02:05PM 32.4658 -90.9875 68° East 133 153 9,000  Climbing Memphis Center
02:06PM 32.4806 -90.9458 67° East 133 153 9,000  Level Memphis Center
02:07PM 32.4956 -90.9017 68° East 133 153 9,000 120 Level Memphis Center
02:08PM 32.5061 -90.8597 73° East 133 153 9,300 300 Climbing Memphis Center
02:09PM 32.5186 -90.8206 69° East 133 153 9,600 300 Climbing Memphis Center
02:10PM 32.5314 -90.7811 69° East 133 153 9,900 300 Climbing Memphis Center
02:11PM 32.5461 -90.7442 65° Northeast 128 147 10,300 360 Climbing Memphis Center
02:12PM 32.5567 -90.7047 72° East 128 147 10,700 300 Climbing Memphis Center
02:13PM 32.5650 -90.6678 75° East 123 142 10,900 -60 Climbing Memphis Center
02:14PM 32.5797 -90.6283 66° East 118 136 10,600 -420 Descending Memphis Center
02:15PM 32.5967 -90.5792 68° East 138 159 10,100 -540 Descending Memphis Center
02:16PM 32.6133 -90.5275 69° East 151 174 9,600 -420 Descending Memphis Center
02:17PM 32.6300 -90.4781 68° East 156 180 9,300 -600 Descending Memphis Center
02:18PM 32.6364 -90.4289 81° East 151 174 8,400 -840 Descending Memphis Center
02:19PM 32.6572 -90.3819 62° Northeast 151 174 7,700 -660 Descending Memphis Center
02:20PM 32.6739 -90.3400 65° Northeast 151 174 7,100 -420 Descending Memphis Center
02:21PM 32.6886 -90.2956 69° East 146 168 6,900 -120 Descending Memphis Center
02:22PM 32.7053 -90.2461 68° East 153 176 6,900  Level Memphis Center
02:23PM 32.7197 -90.1992 70° East 146 168 6,900  Level Memphis Center
02:24PM 32.7322 -90.1572 70° East 146 168 6,900  Level Memphis Center
02:25PM 32.7469 -90.1103 70° East 146 168 6,900  Level Memphis Center
02:26PM 32.7633 -90.0658 66° East 146 168 6,900  Level Memphis Center
02:27PM 32.7758 -90.0211 72° East 146 168 6,900  Level Memphis Center
02:28PM 32.7903 -89.9767 69° East 146 168 6,900  Level Memphis Center
02:29PM 32.8047 -89.9322 69° East 146 168 6,900  Level Memphis Center
02:30PM 32.8172 -89.8875 72° East 146 168 6,900  Level Memphis Center
02:31PM 32.8317 -89.8431 69° East 146 168 6,900  Level Memphis Center
02:32PM 32.8481 -89.7983 66° East 146 168 6,900  Level Memphis Center
02:33PM 32.8603 -89.7564 71° East 146 168 6,900  Level Memphis Center
02:34PM 32.8747 -89.7117 69° East 146 168 6,900  Level Memphis Center
02:35PM 32.8872 -89.6669 72° East 146 168 6,900  Level Memphis Center
02:36PM 32.8994 -89.6225 72° East 146 168 6,900  Level Memphis Center
02:37PM 32.9136 -89.5728 71° East 146 168 6,900  Level Memphis Center
02:38PM 32.9281 -89.5331 67° East 146 168 6,900  Level Memphis Center
02:39PM 32.9422 -89.4883 69° East 146 168 6,900  Level Memphis Center
02:40PM 32.9567 -89.4436 69° East 146 168 6,900  Level Memphis Center
02:41PM 32.9708 -89.3989 69° East 146 168 6,900  Level Memphis Center
02:42PM 32.9831 -89.3542 72° East 146 168 6,900  Level Memphis Center
02:43PM 32.9972 -89.3119 68° East 141 162 6,900  Level Memphis Center
02:44PM 33.0114 -89.2597 72° East 141 162 6,900  Level Memphis Center
02:45PM 33.0278 -89.2175 65° Northeast 141 162 6,900  Level Memphis Center
02:46PM 33.0400 -89.1728 72° East 141 162 6,900  Level Memphis Center
02:47PM 33.0561 -89.1278 67° East 141 162 6,900  Level Memphis Center
02:48PM 33.0683 -89.0831 72° East 141 162 6,900  Level Memphis Center
02:49PM 33.0844 -89.0358 68° East 141 162 6,900  Level Memphis Center
02:50PM 33.0964 -88.9883 73° East 141 162 6,900  Level Memphis Center
02:51PM 33.1106 -88.9461 68° East 147 169 6,900 60 Level Memphis Center
02:52PM 33.1186 -88.9136 74° East 146 168 7,000  Climbing Memphis Center
02:52PM 33.1247 -88.9011 60° Northeast 147 169 6,900  Descending Memphis Center
02:52PM 33.1306 -88.8764 74° East 147 169 7,000 60 Climbing Memphis Center
02:53PM 33.1428 -88.8339 71° East 146 168 7,000 -120 Level Memphis Center
02:54PM 33.1508 -88.8089 69° East 147 169 6,900  Descending Memphis Center
02:54PM 33.1567 -88.7889 71° East 147 169 7,000  Climbing Memphis Center
02:55PM 33.1647 -88.7639 69° East 147 169 6,900  Descending Memphis Center
02:55PM 33.1686 -88.7467 75° East 147 169 7,000  Climbing Memphis Center
02:56PM 33.1808 -88.7167 64° Northeast 147 169 6,900  Descending Memphis Center
02:56PM 33.1828 -88.6967 83° East 148 170 7,000  Climbing Memphis Center
02:57PM 33.1947 -88.6717 60° Northeast 147 169 6,900  Descending Memphis Center
02:57PM 33.1989 -88.6542 74° East 145 167 7,000  Climbing Memphis Center
02:58PM 33.2089 -88.6267 67° East 147 169 6,900  Descending Memphis Center
02:58PM 33.2128 -88.6067 77° East 145 167 7,000  Climbing Memphis Center
02:59PM 33.2228 -88.5817 64° Northeast 147 169 6,900  Descending Memphis Center
02:59PM 33.2286 -88.5567 74° East 148 170 7,000  Climbing Memphis Center
03:00PM 33.2347 -88.5342 72° East 147 169 6,900  Descending Memphis Center
03:00PM 33.2406 -88.5094 74° East 149 171 7,000 60 Climbing Memphis Center
03:01PM 33.2464 -88.4867 73° East 147 169 7,000  Level Memphis Center
03:01PM 33.2544 -88.4642 67° East 146 168 7,000  Level Memphis Center
03:02PM 33.2606 -88.4467 67° East 147 169 7,000  Level Memphis Center
03:02PM 33.2706 -88.4167 68° East 146 168 7,000  Level Memphis Center
03:03PM 33.2744 -88.4017 73° East 147 169 7,000  Level Memphis Center
03:03PM 33.2822 -88.3692 74° East 147 169 7,000  Level Memphis Center
03:04PM 33.2883 -88.3567 60° Northeast 147 169 7,000  Level Memphis Center
03:04PM 33.2939 -88.3242 78° East 146 168 7,000  Level Memphis Center
03:05PM 33.3000 -88.3092 64° Northeast 147 169 7,000  Level Memphis Center
03:05PM 33.3100 -88.2817 66° East 147 169 7,000  Level Memphis Center
03:06PM 33.3181 -88.2639 62° Northeast 147 169 7,000  Level Memphis Center
03:06PM 33.3239 -88.2342 77° East 148 170 7,000  Level Memphis Center
03:07PM 33.3319 -88.2189 58° Northeast 141 162 7,000  Level Memphis Center
03:07PM 33.3356 -88.1889 82° East 146 168 7,000  Level Memphis Center
03:08PM 33.3414 -88.1642 74° East 146 168 7,000  Level Memphis Center
03:08PM 33.3494 -88.1439 65° Northeast 144 166 7,000  Level Memphis Center
03:09PM 33.3553 -88.1214 73° East 146 168 7,000  Level Memphis Center
03:09PM 33.3633 -88.1014 64° Northeast 143 165 7,000  Level Memphis Center
03:10PM 33.3689 -88.0739 76° East 146 168 7,000  Level Memphis Center
03:10PM 33.3769 -88.0511 67° East 145 167 7,000  Level Memphis Center
03:11PM 33.3828 -88.0311 71° East 146 168 7,000  Level Memphis Center
03:11PM 33.3906 -88.0036 71° East 147 169 7,000  Level Memphis Center
03:12PM 33.3964 -87.9836 71° East 146 168 7,000  Level Memphis Center
03:12PM 33.4044 -87.9583 69° East 147 169 7,000  Level Memphis Center
03:13PM 33.4103 -87.9358 73° East 146 168 7,000  Level Memphis Center
03:13PM 33.4158 -87.9083 76° East 147 169 7,000  Level Memphis Center
03:14PM 33.4219 -87.8908 67° East 146 168 7,000  Level Memphis Center
03:14PM 33.4317 -87.8656 65° Northeast 146 168 7,000  Level Memphis Center
03:15PM 33.4356 -87.8456 77° East 146 168 7,000  Level Memphis Center
03:16PM 33.4492 -87.8003 70° East 146 168 7,000  Level Memphis Center
03:17PM 33.4628 -87.7500 72° East 146 168 7,000  Level Memphis Center
03:18PM 33.4764 -87.7050 70° East 146 168 7,000  Level Memphis Center
03:19PM 33.4900 -87.6572 71° East 146 168 7,000  Level Memphis Center
03:20PM 33.5036 -87.6144 69° East 141 162 7,000  Level Memphis Center
03:21PM 33.5231 -87.5422 72° East 147 169 7,000  Level Atlanta Center
03:22PM 33.5328 -87.5003 74° East 145 167 7,000  Level Atlanta Center
03:23PM 33.5486 -87.4561 67° East 146 168 7,000  Level Atlanta Center
03:24PM 33.5603 -87.4092 73° East 147 169 7,000  Level Atlanta Center
03:25PM 33.5742 -87.3647 69° East 147 169 7,000  Level Atlanta Center
03:26PM 33.5878 -87.3181 71° East 145 167 7,000  Level Atlanta Center
03:27PM 33.5994 -87.2761 72° East 141 162 7,000  Level Atlanta Center
03:28PM 33.6131 -87.2317 70° East 142 163 7,000  Level Atlanta Center
03:29PM 33.6267 -87.1872 70° East 146 168 7,000  Level Atlanta Center
03:30PM 33.6406 -87.1378 71° East 147 169 7,000  Level Atlanta Center
03:31PM 33.6522 -87.0908 73° East 144 166 7,000  Level Atlanta Center
03:32PM 33.6678 -87.0439 68° East 144 166 7,000  Level Atlanta Center
03:33PM 33.6794 -86.9969 73° East 147 169 7,000  Level Atlanta Center
03:34PM 33.6908 -86.9550 72° East 147 169 7,000  Level Atlanta Center
03:35PM 33.7044 -86.9081 71° East 144 166 7,000  Level Atlanta Center
03:36PM 33.7181 -86.8633 70° East 141 162 7,000  Level Atlanta Center
03:37PM 33.7294 -86.8189 73° East 140 161 7,000  Level Atlanta Center
03:39PM 33.7431 -86.7667 73° East 138 159 7,000  Level Atlanta Center
03:40PM 33.7567 -86.7247 69° East 137 158 7,000  Level Atlanta Center
03:41PM 33.7681 -86.6800 73° East 137 158 7,000  Level Atlanta Center
03:42PM 33.7794 -86.6381 72° East 137 158 7,000  Level Atlanta Center
03:43PM 33.7928 -86.5933 70° East 136 157 7,000  Level Atlanta Center
03:44PM 33.8106 -86.5389 69° East 147 169 7,000  Level Atlanta Center
03:45PM 33.8219 -86.4942 73° East 147 169 7,000  Level Atlanta Center
03:46PM 33.8333 -86.4497 73° East 142 163 7,000  Level Atlanta Center
03:47PM 33.8467 -86.4025 71° East 142 163 7,000  Level Atlanta Center
03:48PM 33.8600 -86.3603 69° East 142 163 7,000  Level Atlanta Center
03:49PM 33.8714 -86.3131 74° East 142 163 7,000  Level Atlanta Center
03:50PM 33.8847 -86.2683 70° East 147 169 7,000  Level Atlanta Center
03:51PM 33.9003 -86.2211 68° East 147 169 7,000  Level Atlanta Center
03:52PM 33.9133 -86.1764 71° East 147 169 7,000  Level Atlanta Center
03:53PM 33.9225 -86.1292 77° East 147 169 7,000  Level Atlanta Center
03:54PM 33.9358 -86.0844 70° East 142 163 7,000  Level Atlanta Center
03:55PM 33.9469 -86.0397 73° East 147 169 7,000  Level Atlanta Center
03:56PM 33.9603 -85.9922 71° East 147 169 7,000  Level Atlanta Center
03:57PM 33.9736 -85.9475 70° East 147 169 7,000  Level Atlanta Center
03:58PM 33.9847 -85.9028 73° East 147 169 7,000  Level Atlanta Center
03:59PM 33.9981 -85.8553 71° East 147 169 7,000  Level Atlanta Center
04:00PM 34.0111 -85.8131 70° East 147 169 7,000  Level Atlanta Center
04:01PM 34.0264 -85.7708 66° East 147 169 7,000  Level Atlanta Center
04:02PM 34.0372 -85.7258 74° East 147 169 7,000  Level Atlanta Center
04:03PM 34.0506 -85.6811 70° East 147 169 7,000  Level Atlanta Center
04:04PM 34.0636 -85.6311 72° East 147 169 7,000  Level Atlanta Center
04:05PM 34.0747 -85.5861 73° East 147 169 7,000  Level Atlanta Center
04:06PM 34.0878 -85.5386 72° East 147 169 7,000  Level Atlanta Center
04:07PM 34.0967 -85.4964 76° East 147 169 7,000  Level Atlanta Center
04:08PM 34.1097 -85.4489 72° East 147 169 7,000  Level Atlanta Center
04:09PM 34.1228 -85.4014 72° East 147 169 7,000  Level Atlanta Center
04:10PM 34.1336 -85.3564 74° East 147 169 7,000  Level Atlanta Center
04:11PM 34.1467 -85.3114 71° East 142 163 7,000  Level Atlanta Center
04:12PM 34.1556 -85.2689 76° East 142 163 7,000  Level Atlanta Center
04:13PM 34.1683 -85.2264 70° East 142 163 7,000  Level Atlanta Center
04:14PM 34.1814 -85.1814 71° East 147 169 7,000  Level Atlanta Center
04:15PM 34.1942 -85.1364 71° East 141 162 7,000  Level Atlanta Center
04:16PM 34.2072 -85.0914 71° East 141 162 7,000  Level Atlanta Center
04:17PM 34.2222 -85.0486 67° East 146 168 7,000  Level Atlanta Center
04:18PM 34.2414 -85.0089 60° Northeast 140 161 7,000  Level Atlanta Center
04:19PM 34.2625 -84.9636 61° Northeast 140 161 7,000  Level Atlanta Center
04:20PM 34.2836 -84.9236 57° Northeast 134 154 7,000  Level Atlanta Center
04:21PM 34.3028 -84.8811 61° Northeast 139 160 7,000  Level Atlanta Center
04:22PM 34.3217 -84.8411 60° Northeast 139 160 7,000  Level Atlanta Center
04:23PM 34.3408 -84.7986 61° Northeast 139 160 7,000  Level Atlanta Center
04:24PM 34.3597 -84.7608 59° Northeast 139 160 7,000  Level Atlanta Center
04:25PM 34.3767 -84.7183 64° Northeast 139 160 7,000  Level Atlanta Center
04:26PM 34.3936 -84.6756 64° Northeast 139 160 7,000  Level Atlanta Center
04:27PM 34.4003 -84.6331 79° East 133 153 7,000  Level Atlanta Center
04:28PM 34.4086 -84.5878 77° East 133 153 7,000  Level Atlanta Center
04:29PM 34.4194 -84.5400 75° East 133 153 7,000  Level Atlanta Center
04:30PM 34.4278 -84.4919 78° East 138 159 7,000  Level Atlanta Center
04:31PM 34.4406 -84.4469 71° East 143 165 7,000  Level Atlanta Center
04:32PM 34.4511 -84.3939 76° East 143 165 7,000  Level Atlanta Center
04:33PM 34.4617 -84.3486 74° East 143 165 7,000  Level Atlanta Center
04:34PM 34.4703 -84.3008 78° East 143 165 7,000  Level Atlanta Center
04:35PM 34.4808 -84.2531 75° East 138 159 7,000  Level Atlanta Center
04:36PM 34.4911 -84.2078 75° East 138 159 7,000  Level Atlanta Center
04:37PM 34.5017 -84.1622 74° East 138 159 7,000  Level Atlanta Center
04:38PM 34.5122 -84.1169 74° East 138 159 7,000  Level Atlanta Center
04:39PM 34.5206 -84.0717 77° East 144 166 7,000  Level Atlanta Center
04:40PM 34.5311 -84.0236 75° East 144 166 7,000  Level Atlanta Center
04:41PM 34.5394 -83.9833 76° East 144 166 7,000  Level Atlanta Center
04:42PM 34.5497 -83.9378 75° East 144 166 7,000  Level Atlanta Center
04:43PM 34.5600 -83.8925 75° East 144 166 7,000  Level Atlanta Center
04:44PM 34.5683 -83.8469 77° East 138 159 7,000  Level Atlanta Center
04:45PM 34.5789 -83.8042 73° East 138 159 7,000  Level Atlanta Center
04:46PM 34.5869 -83.7586 78° East 138 159 7,000  Level Atlanta Center
04:47PM 34.5994 -83.7108 72° East 132 152 7,000  Level Atlanta Center
04:48PM 34.6078 -83.6678 77° East 132 152 7,000  Level Atlanta Center
04:49PM 34.6181 -83.6197 75° East 132 152 7,000  Level Atlanta Center
04:50PM 34.6283 -83.5744 75° East 137 158 7,000  Level Atlanta Center
04:51PM 34.6342 -83.5364 79° East 137 158 7,000  Level Atlanta Center
04:52PM 34.6425 -83.4883 78° East 137 158 7,000  Level Atlanta Center
04:53PM 34.6547 -83.4453 71° East 137 158 7,000  Level Atlanta Center
04:54PM 34.6628 -83.3972 78° East 137 158 7,000  Level Atlanta Center
04:55PM 34.6731 -83.3569 73° East 137 158 7,000 -60 Level Atlanta Center
04:56PM 34.6811 -83.3086 79° East 137 158 6,900 -240 Descending Atlanta Center
04:57PM 34.6892 -83.2683 76° East 132 152 6,600 -540 Descending Atlanta Center
04:58PM 34.7036 -83.2175 71° East 132 152 5,900 -780 Descending Atlanta Center
04:59PM 34.7094 -83.1772 80° East 132 152 5,100 -540 Descending Atlanta Center
05:00PM 34.7217 -83.1289 73° East 132 152 4,900 -120 Descending Atlanta Center
05:01PM 34.7131 -83.0836 103° East 132 152 4,900  Level Atlanta Center
05:02PM 34.7064 -83.0356 100° East 132 152 4,900  Level Atlanta Center
05:03PM 34.6997 -82.9903 100° East 132 152 4,900  Level Atlanta Center
05:04PM 34.6931 -82.9450 100° East 137 158 4,900 -360 Level Atlanta Center
05:05PM 34.6883 -82.8969 97° East 142 163 4,200 -840 Descending Atlanta Center
05:06PM 34.6817 -82.8517 100° East 142 163 3,300 -780 Descending Atlanta Center
05:07PM 34.6897 -82.8086 77° East 127 146 2,700 -600 Descending Atlanta Center
05:10PM 34.7461 -82.7701 29° Northeast  Level FlightAware Approximate
05:17PM 34.8000 -82.7000 90° East  Level FlightAware Approximate
05:18PM 34.8100 -82.7029 90° East  Level Estimated